createdAt,value
2023-02-16T00:05:26.860Z,3.10
2023-02-16T00:15:31.330Z,3.10
2023-02-16T01:38:01.914Z,2.90
2023-02-16T01:48:08.382Z,2.80
2023-02-16T01:58:22.226Z,2.80
2023-02-16T02:08:34.646Z,2.80
2023-02-16T02:18:40.183Z,2.70
2023-02-16T02:28:52.585Z,2.70
2023-02-16T02:39:09.109Z,2.70
2023-02-16T02:49:14.108Z,2.60
2023-02-16T02:59:35.650Z,2.60
2023-02-16T03:09:40.844Z,2.60
2023-02-16T03:20:05.418Z,2.50
2023-02-16T03:30:14.317Z,2.40
2023-02-16T03:40:33.094Z,2.40
2023-02-16T03:50:38.457Z,2.50
2023-02-16T04:00:42.427Z,2.30
2023-02-16T04:10:47.669Z,2.30
2023-02-16T04:20:52.345Z,2.20
2023-02-16T04:30:57.508Z,2.10
2023-02-16T04:41:01.415Z,2.20
2023-02-16T04:51:07.528Z,2.20
2023-02-16T05:01:21.695Z,2.30
2023-02-16T05:11:44.124Z,2.40
2023-02-16T05:21:47.900Z,2.40
2023-02-16T05:31:53.127Z,2.50
2023-02-16T05:41:57.091Z,2.50
2023-02-16T05:52:02.381Z,2.50
2023-02-16T06:02:06.424Z,2.50
2023-02-16T06:12:12.023Z,2.40
2023-02-16T06:22:15.921Z,2.50
2023-02-16T06:32:21.000Z,2.50
2023-02-16T06:42:24.755Z,2.30
2023-02-16T06:52:29.830Z,2.20
2023-02-16T07:02:33.491Z,2.20
2023-02-16T07:12:38.513Z,2.00
2023-02-16T07:22:42.103Z,1.80
2023-02-16T07:32:47.139Z,1.80
2023-02-16T07:42:50.964Z,1.90
2023-02-16T07:52:55.997Z,1.70
2023-02-16T08:02:59.951Z,1.80
2023-02-16T08:13:04.978Z,1.90
2023-02-16T08:23:10.336Z,2.00
2023-02-16T08:33:15.363Z,1.90
2023-02-16T08:43:19.164Z,1.80
2023-02-16T08:53:25.241Z,1.80
2023-02-16T09:03:28.902Z,1.90
2023-02-16T09:13:35.608Z,2.20
2023-02-16T09:23:40.155Z,2.40
2023-02-16T09:33:46.724Z,2.50
2023-02-16T09:43:58.617Z,2.80
2023-02-16T09:54:16.697Z,3.00
2023-02-16T10:04:38.980Z,3.00
2023-02-16T10:14:48.703Z,3.10
2023-02-16T10:25:00.724Z,3.00
2023-02-16T10:35:17.319Z,3.20
2023-02-16T10:45:27.331Z,3.60
2023-02-16T10:55:32.614Z,4.00
2023-02-16T11:05:38.547Z,4.20
2023-02-16T11:15:44.549Z,4.30
2023-02-16T11:25:58.037Z,4.70
2023-02-16T11:36:05.278Z,5.20
2023-02-16T11:46:17.626Z,5.50
2023-02-16T11:56:27.997Z,5.60
2023-02-16T12:06:54.483Z,5.70
2023-02-16T12:17:12.858Z,5.60
2023-02-16T12:27:24.535Z,5.60
2023-02-16T12:37:40.213Z,5.80
2023-02-16T12:47:48.677Z,5.90
2023-02-16T12:58:04.177Z,6.20
2023-02-16T13:08:17.024Z,6.40
2023-02-16T13:18:25.528Z,6.30
2023-02-16T13:28:57.312Z,6.40
2023-02-16T13:39:41.557Z,6.60
2023-02-16T13:49:50.411Z,6.70
2023-02-16T14:00:05.526Z,6.80
2023-02-16T14:10:14.681Z,6.60
2023-02-16T14:20:31.465Z,6.70
2023-02-16T14:30:37.815Z,6.80
2023-02-16T14:40:52.424Z,6.80
2023-02-16T14:51:23.244Z,6.60
2023-02-16T15:01:28.815Z,6.70
2023-02-16T15:11:56.554Z,6.80
2023-02-16T15:22:19.171Z,6.80
2023-02-16T15:32:24.747Z,6.60
2023-02-16T15:42:34.071Z,6.50
2023-02-16T15:52:39.268Z,6.50
2023-02-16T16:02:47.436Z,6.40
2023-02-16T16:12:54.066Z,6.30
2023-02-16T16:23:04.467Z,6.30
2023-02-16T16:33:11.880Z,6.30
2023-02-16T16:43:19.336Z,6.20
2023-02-16T16:53:53.105Z,6.10
2023-02-16T17:03:58.491Z,6.10
2023-02-16T17:14:09.860Z,6.00
2023-02-16T17:24:15.817Z,6.10
2023-02-16T17:34:19.543Z,6.10
2023-02-16T17:44:24.685Z,6.00
2023-02-16T17:54:28.259Z,5.80
2023-02-16T18:04:33.281Z,5.70
2023-02-16T18:14:37.047Z,5.70
2023-02-16T18:24:44.336Z,5.70
2023-02-16T18:34:47.989Z,5.70
2023-02-16T18:44:53.050Z,5.70
2023-02-16T18:54:56.748Z,5.70
2023-02-16T19:05:01.961Z,5.80
2023-02-16T19:15:06.973Z,5.80
2023-02-16T19:25:12.067Z,5.90
2023-02-16T19:35:15.731Z,5.80
2023-02-16T19:45:21.140Z,5.80
2023-02-16T19:55:24.854Z,5.90
2023-02-16T20:05:30.529Z,5.80
2023-02-16T20:15:34.369Z,6.00
2023-02-16T20:25:43.559Z,5.90
2023-02-16T20:35:48.109Z,6.00
2023-02-16T20:45:53.152Z,6.10
2023-02-16T20:56:03.333Z,6.00
2023-02-16T21:06:08.458Z,6.00
2023-02-16T21:16:13.350Z,6.00
2023-02-16T21:26:20.005Z,6.10
2023-02-16T21:36:26.758Z,5.90
2023-02-16T21:46:33.998Z,5.90
2023-02-16T21:56:40.725Z,5.90
2023-02-16T22:06:48.456Z,6.10
2023-02-16T22:16:52.451Z,6.10
2023-02-16T22:26:57.427Z,6.20
2023-02-16T22:37:01.080Z,6.40
2023-02-16T22:47:08.929Z,6.50
2023-02-16T22:57:12.528Z,6.70
2023-02-16T23:07:17.642Z,6.80
2023-02-16T23:17:21.670Z,6.90
2023-02-16T23:27:26.618Z,6.90
2023-02-16T23:37:31.852Z,7.00
2023-02-16T23:47:36.769Z,7.00
2023-02-16T23:57:40.350Z,7.10
